createdAt,value
2023-11-30T14:10:12.974Z,18.55
2023-11-30T14:12:44.126Z,17.52
2023-11-30T14:15:12.874Z,17.00
2023-11-30T14:17:44.372Z,17.63
2023-11-30T14:20:13.118Z,18.52
2023-11-30T14:22:42.008Z,17.83
2023-11-30T14:25:11.268Z,17.73
2023-11-30T14:27:40.710Z,19.17
2023-11-30T14:30:11.216Z,17.83
2023-11-30T14:32:41.417Z,18.33
2023-11-30T14:35:10.189Z,19.05
2023-11-30T14:37:39.468Z,17.42
2023-11-30T14:40:10.096Z,16.38
2023-11-30T14:42:39.372Z,18.50
2023-11-30T14:45:11.556Z,18.77
2023-11-30T14:47:44.749Z,20.45
2023-11-30T14:50:13.584Z,19.52
2023-11-30T14:52:46.246Z,19.92
2023-11-30T14:55:15.470Z,20.08
2023-11-30T14:57:45.031Z,17.88
2023-11-30T15:00:18.488Z,19.40
2023-11-30T15:02:47.658Z,19.10
2023-11-30T15:05:16.990Z,19.30
2023-11-30T15:07:45.941Z,18.27
2023-11-30T15:10:14.962Z,20.25
2023-11-30T15:12:45.032Z,25.15
2023-11-30T15:15:15.832Z,21.90
2023-11-30T15:17:49.808Z,22.73
2023-11-30T15:20:20.274Z,22.55
2023-11-30T15:22:51.070Z,23.63
2023-11-30T15:25:20.318Z,22.48
2023-11-30T15:27:50.668Z,23.15
2023-11-30T15:30:19.978Z,23.13
2023-11-30T15:32:49.087Z,23.23
2023-11-30T15:35:17.711Z,24.98
2023-11-30T15:37:50.447Z,23.27
2023-11-30T15:40:21.965Z,25.70
2023-11-30T15:42:52.740Z,25.80
2023-11-30T15:45:24.635Z,25.75
2023-11-30T15:47:53.827Z,26.98
2023-11-30T15:50:22.500Z,28.40
2023-11-30T15:52:52.592Z,25.42
2023-11-30T15:55:21.069Z,27.58
2023-11-30T15:57:50.059Z,27.65
2023-11-30T16:00:21.663Z,35.90
2023-11-30T16:02:51.071Z,29.77
2023-11-30T16:05:19.737Z,29.13
2023-11-30T16:07:48.707Z,31.95
2023-11-30T16:10:17.532Z,31.38
2023-11-30T16:12:47.861Z,30.73
2023-11-30T16:15:16.594Z,33.90
2023-11-30T16:17:47.484Z,32.75
2023-11-30T16:20:16.095Z,31.55
2023-11-30T16:22:45.009Z,33.60
2023-11-30T16:25:14.036Z,33.15
2023-11-30T16:27:44.145Z,35.03
2023-11-30T16:30:13.552Z,33.90
2023-11-30T16:32:42.866Z,34.08
2023-11-30T16:35:11.760Z,32.72
2023-11-30T16:37:40.804Z,33.97
2023-11-30T16:40:11.228Z,33.60
2023-11-30T16:42:40.204Z,35.92
2023-11-30T16:45:09.211Z,33.97
2023-11-30T16:47:39.750Z,36.83
2023-11-30T16:50:10.187Z,34.90
2023-11-30T16:52:39.938Z,33.15
2023-11-30T16:55:08.864Z,36.00
2023-11-30T16:57:37.812Z,36.85
2023-11-30T17:00:07.669Z,37.08
2023-11-30T17:02:36.731Z,37.78
2023-11-30T17:05:05.865Z,36.97
2023-11-30T17:07:34.797Z,39.20
2023-11-30T17:10:03.929Z,40.00
2023-11-30T17:12:33.038Z,41.97
2023-11-30T17:15:01.785Z,39.80
2023-11-30T17:17:30.971Z,35.83
2023-11-30T17:19:59.801Z,38.55
2023-11-30T17:22:28.709Z,39.22
2023-11-30T17:24:57.248Z,41.67
2023-11-30T17:27:26.219Z,41.20
2023-11-30T17:29:54.740Z,43.00
2023-11-30T17:32:23.692Z,42.92
2023-11-30T17:34:53.156Z,43.75
2023-11-30T17:37:22.137Z,45.03
2023-11-30T17:39:50.671Z,45.58
2023-11-30T17:42:21.722Z,47.50
2023-11-30T17:44:50.299Z,44.90
2023-11-30T17:47:19.322Z,44.15
2023-11-30T17:49:47.859Z,45.13
2023-11-30T17:52:17.414Z,45.28
2023-11-30T17:54:46.081Z,46.05
2023-11-30T17:57:15.035Z,44.47
2023-11-30T17:59:43.565Z,48.28
2023-11-30T18:02:12.519Z,45.50
2023-11-30T18:04:41.243Z,48.78
2023-11-30T18:07:11.857Z,44.80
2023-11-30T18:09:40.511Z,45.40
2023-11-30T18:12:09.723Z,45.22
2023-11-30T18:14:38.914Z,48.28
2023-11-30T18:17:07.987Z,42.72
2023-11-30T18:19:36.645Z,45.13
2023-11-30T18:22:05.670Z,44.40
2023-11-30T18:24:34.408Z,42.75
2023-11-30T18:27:04.073Z,43.85
2023-11-30T18:29:32.672Z,44.50
2023-11-30T18:32:01.857Z,42.83
2023-11-30T18:34:30.415Z,42.35
2023-11-30T18:36:59.628Z,42.78
2023-11-30T18:39:28.253Z,44.88
2023-11-30T18:41:57.272Z,45.42
2023-11-30T18:44:26.402Z,45.97
2023-11-30T18:46:55.932Z,47.22
2023-11-30T18:49:25.559Z,48.33
2023-11-30T18:51:54.561Z,46.80
2023-11-30T18:54:23.248Z,48.90
2023-11-30T18:56:52.223Z,47.63
2023-11-30T18:59:20.749Z,46.22
2023-11-30T19:01:50.053Z,48.17
2023-11-30T19:04:18.811Z,50.05
2023-11-30T19:06:47.952Z,50.58
2023-11-30T19:09:16.658Z,52.83
2023-11-30T19:11:46.205Z,51.47
2023-11-30T19:14:14.828Z,52.08
2023-11-30T19:16:45.136Z,51.85
2023-11-30T19:19:13.759Z,54.45
2023-11-30T19:21:43.709Z,50.95
2023-11-30T19:24:14.505Z,53.15
2023-11-30T19:26:57.412Z,53.45
2023-11-30T19:29:26.025Z,53.92
2023-11-30T19:31:54.962Z,50.33
2023-11-30T19:34:23.525Z,53.92
2023-11-30T19:36:52.414Z,49.45
2023-11-30T19:39:23.183Z,51.85
2023-11-30T19:41:52.095Z,49.80
2023-11-30T19:44:20.607Z,50.95
2023-11-30T19:46:49.866Z,51.15
2023-11-30T19:49:18.533Z,49.67
2023-11-30T19:51:47.719Z,49.90
2023-11-30T19:54:16.338Z,48.28
2023-11-30T19:56:45.396Z,50.78
2023-11-30T19:59:13.977Z,49.33
2023-11-30T20:01:43.009Z,49.63
2023-11-30T20:04:13.418Z,47.70
2023-11-30T20:06:42.427Z,49.28
2023-11-30T20:09:10.939Z,47.20
2023-11-30T20:11:39.950Z,48.70
2023-11-30T20:14:09.923Z,45.50
2023-11-30T20:16:42.712Z,49.17
2023-11-30T20:19:11.962Z,46.88
2023-11-30T20:21:40.884Z,47.42
2023-11-30T20:24:09.676Z,47.80
2023-11-30T20:26:42.544Z,48.22
2023-11-30T20:29:11.327Z,49.55
2023-11-30T20:31:40.306Z,47.83
2023-11-30T20:34:09.300Z,56.55
2023-11-30T20:36:38.204Z,51.13
2023-11-30T20:39:06.741Z,50.78
2023-11-30T20:41:36.419Z,50.13
2023-11-30T20:44:05.827Z,52.45
2023-11-30T20:46:34.699Z,51.95
2023-11-30T20:49:03.791Z,51.30
2023-11-30T20:51:32.770Z,52.60
2023-11-30T20:54:03.275Z,49.40
2023-11-30T20:56:32.452Z,50.50
2023-11-30T20:59:00.928Z,50.58
2023-11-30T21:01:30.858Z,47.40
2023-11-30T21:03:59.672Z,48.20
2023-11-30T21:06:28.640Z,46.47
2023-11-30T21:08:58.453Z,45.75
2023-11-30T21:11:27.914Z,51.42
2023-11-30T21:13:56.514Z,46.17
2023-11-30T21:16:25.398Z,44.75
2023-11-30T21:18:53.913Z,46.97
2023-11-30T21:21:22.879Z,45.20
2023-11-30T21:23:51.554Z,45.70
2023-11-30T21:26:20.469Z,45.80
2023-11-30T21:28:48.981Z,45.60
2023-11-30T21:31:17.961Z,43.75
2023-11-30T21:33:46.603Z,48.92
2023-11-30T21:36:15.892Z,47.38
2023-11-30T21:38:44.724Z,45.78
2023-11-30T21:41:16.827Z,47.20
2023-11-30T21:43:45.872Z,47.90
2023-11-30T21:46:14.418Z,46.50
2023-11-30T21:48:43.616Z,46.42
2023-11-30T21:51:12.483Z,47.97
2023-11-30T21:53:41.370Z,50.30
2023-11-30T21:56:11.593Z,52.33
2023-11-30T21:58:40.617Z,49.97
2023-11-30T22:01:09.674Z,53.10
2023-11-30T22:03:39.645Z,50.80
2023-11-30T22:06:08.719Z,57.13
